createdAt,value
2018-09-29T00:00:53.094Z,10.10
2018-09-29T00:03:22.123Z,10.18
2018-09-29T00:05:50.832Z,10.23
2018-09-29T00:08:19.872Z,10.20
2018-09-29T00:10:48.697Z,10.18
2018-09-29T00:13:17.375Z,10.25
2018-09-29T00:15:46.099Z,10.29
2018-09-29T00:18:14.893Z,10.20
2018-09-29T00:20:43.954Z,10.24
2018-09-29T00:23:12.663Z,10.20
2018-09-29T00:25:41.381Z,10.15
2018-09-29T00:28:10.034Z,10.12
2018-09-29T00:30:38.688Z,10.02
2018-09-29T00:33:07.388Z,9.91
2018-09-29T00:35:36.157Z,9.91
2018-09-29T00:38:04.862Z,9.95
2018-09-29T00:40:33.613Z,9.83
2018-09-29T00:43:02.994Z,9.81
2018-09-29T00:45:31.540Z,9.76
2018-09-29T00:48:00.269Z,9.82
2018-09-29T00:50:28.899Z,9.88
2018-09-29T00:52:57.740Z,9.90
2018-09-29T00:55:26.430Z,9.93
2018-09-29T00:57:55.070Z,9.91
2018-09-29T01:00:23.715Z,9.93
2018-09-29T01:02:52.334Z,9.92
2018-09-29T01:05:21.050Z,9.88
2018-09-29T01:07:49.810Z,9.87
2018-09-29T01:10:18.421Z,9.79
2018-09-29T01:12:47.154Z,9.86
2018-09-29T01:15:15.773Z,9.83
2018-09-29T01:17:44.459Z,9.80
2018-09-29T01:20:13.209Z,9.83
2018-09-29T01:22:41.781Z,9.89
2018-09-29T01:25:13.467Z,9.94
2018-09-29T01:27:42.210Z,9.81
2018-09-29T01:30:10.909Z,9.72
2018-09-29T01:32:39.584Z,9.71
2018-09-29T01:35:08.284Z,9.76
2018-09-29T01:37:37.181Z,9.73
2018-09-29T01:40:05.844Z,9.71
2018-09-29T01:42:34.582Z,9.78
2018-09-29T01:45:03.716Z,9.80
2018-09-29T01:47:32.318Z,9.74
2018-09-29T01:50:00.939Z,9.71
2018-09-29T01:52:29.681Z,9.63
2018-09-29T01:54:58.277Z,9.53
2018-09-29T01:57:26.906Z,9.42
2018-09-29T01:59:55.939Z,9.36
2018-09-29T02:02:24.572Z,9.16
2018-09-29T02:04:54.377Z,9.08
2018-09-29T02:07:23.240Z,9.11
2018-09-29T02:09:52.668Z,9.12
2018-09-29T02:12:21.382Z,9.14
2018-09-29T02:14:50.132Z,9.16
2018-09-29T02:17:18.707Z,9.12
2018-09-29T02:19:47.583Z,9.11
2018-09-29T02:22:16.419Z,9.08
2018-09-29T02:24:45.103Z,9.09
2018-09-29T02:27:13.652Z,9.13
2018-09-29T02:29:42.348Z,9.12
2018-09-29T02:32:10.945Z,9.10
2018-09-29T02:34:39.540Z,9.12
2018-09-29T02:37:08.892Z,9.07
2018-09-29T02:39:37.579Z,9.03
2018-09-29T02:42:06.282Z,9.02
2018-09-29T02:44:34.893Z,9.04
2018-09-29T02:47:05.027Z,9.00
2018-09-29T02:49:33.530Z,9.03
2018-09-29T02:52:03.272Z,9.06
2018-09-29T02:54:31.894Z,9.07
2018-09-29T02:57:00.573Z,9.02
2018-09-29T02:59:29.598Z,8.95
2018-09-29T03:01:58.157Z,8.96
2018-09-29T03:04:26.828Z,9.02
2018-09-29T03:06:55.546Z,9.13
2018-09-29T03:09:24.107Z,9.15
2018-09-29T03:11:53.048Z,9.10
2018-09-29T03:14:21.705Z,9.04
2018-09-29T03:16:50.379Z,9.10
2018-09-29T03:19:19.070Z,9.20
2018-09-29T03:21:47.838Z,9.24
2018-09-29T03:24:16.421Z,9.23
2018-09-29T03:26:45.056Z,9.22
2018-09-29T03:29:13.694Z,9.13
2018-09-29T03:31:42.604Z,9.01
2018-09-29T03:34:10.993Z,9.07
2018-09-29T03:36:39.685Z,9.08
2018-09-29T03:39:09.995Z,8.96
2018-09-29T03:41:38.921Z,8.91
2018-09-29T03:44:07.956Z,8.85
2018-09-29T03:46:36.839Z,8.81
2018-09-29T03:49:05.504Z,8.87
2018-09-29T03:51:34.213Z,8.92
2018-09-29T03:54:03.006Z,8.85
2018-09-29T03:56:31.622Z,8.86
2018-09-29T03:59:00.405Z,8.83
2018-09-29T04:01:29.012Z,8.88
2018-09-29T04:03:57.553Z,8.81
2018-09-29T04:06:26.155Z,8.75
2018-09-29T04:08:54.809Z,8.69
2018-09-29T04:11:23.438Z,8.69
2018-09-29T04:13:52.602Z,8.62
2018-09-29T04:16:21.184Z,8.62
2018-09-29T04:18:49.867Z,8.64
2018-09-29T04:21:18.608Z,8.62
2018-09-29T04:23:47.210Z,8.65
2018-09-29T04:26:15.815Z,8.57
2018-09-29T04:28:44.717Z,8.54
2018-09-29T04:31:13.475Z,8.61
2018-09-29T04:33:42.264Z,8.70
2018-09-29T04:36:10.902Z,8.76
2018-09-29T04:38:39.557Z,8.74
2018-09-29T04:41:08.199Z,8.69
2018-09-29T04:43:36.961Z,8.61
2018-09-29T04:46:05.618Z,8.65
2018-09-29T04:48:34.345Z,8.69
2018-09-29T04:51:04.410Z,8.65
2018-09-29T04:53:33.075Z,8.58
2018-09-29T04:56:01.762Z,8.58
2018-09-29T04:58:30.433Z,8.64
2018-09-29T05:00:59.145Z,8.52
2018-09-29T05:03:27.963Z,8.65
2018-09-29T05:05:56.603Z,8.77
2018-09-29T05:08:25.637Z,8.79
2018-09-29T05:10:54.307Z,8.81
2018-09-29T05:13:22.936Z,8.85
2018-09-29T05:15:51.590Z,8.86
2018-09-29T05:18:20.104Z,8.85
2018-09-29T05:20:48.753Z,8.76
2018-09-29T05:23:17.382Z,8.74
2018-09-29T05:25:45.945Z,8.72
2018-09-29T05:28:14.569Z,8.64
2018-09-29T05:30:43.598Z,8.64
2018-09-29T05:33:12.168Z,8.65
2018-09-29T05:35:40.897Z,8.56
2018-09-29T05:38:09.504Z,8.54
2018-09-29T05:40:38.048Z,8.54
2018-09-29T05:43:06.812Z,8.54
2018-09-29T05:45:35.501Z,8.55
2018-09-29T05:48:04.818Z,8.45
2018-09-29T05:50:33.486Z,8.51
2018-09-29T05:53:02.786Z,8.53
2018-09-29T05:55:31.476Z,8.54
2018-09-29T05:58:00.084Z,8.52
2018-09-29T06:00:28.740Z,8.53
2018-09-29T06:02:57.408Z,8.58
2018-09-29T06:05:26.110Z,8.57
2018-09-29T06:07:54.688Z,8.54
2018-09-29T06:10:23.288Z,8.58
2018-09-29T06:12:51.992Z,8.62
2018-09-29T06:15:20.627Z,8.68
2018-09-29T06:17:49.150Z,8.68
2018-09-29T06:20:17.794Z,8.67
2018-09-29T06:22:46.392Z,8.66
2018-09-29T06:25:15.254Z,8.68
2018-09-29T06:27:43.973Z,8.72
2018-09-29T06:30:12.656Z,8.81
2018-09-29T06:32:41.261Z,8.85
2018-09-29T06:35:09.842Z,8.90
2018-09-29T06:37:38.619Z,8.94
2018-09-29T06:40:07.658Z,8.99
2018-09-29T06:42:36.237Z,9.01
2018-09-29T06:45:05.464Z,9.06
2018-09-29T06:47:34.085Z,9.12
2018-09-29T06:50:02.792Z,9.18
2018-09-29T06:52:31.418Z,9.20
2018-09-29T06:55:00.017Z,9.19
2018-09-29T06:57:28.790Z,9.21
2018-09-29T06:59:57.407Z,9.26
2018-09-29T07:02:25.983Z,9.35
2018-09-29T07:04:54.575Z,9.43
2018-09-29T07:07:23.172Z,9.51
2018-09-29T07:09:51.788Z,9.54
2018-09-29T07:12:20.485Z,9.53
2018-09-29T07:14:49.023Z,9.39
2018-09-29T07:17:17.617Z,9.38
2018-09-29T07:19:46.191Z,9.44
2018-09-29T07:22:14.729Z,9.47
2018-09-29T07:24:43.313Z,9.58
2018-09-29T07:27:11.960Z,9.65
2018-09-29T07:29:40.945Z,9.67
2018-09-29T07:32:09.598Z,9.73
2018-09-29T07:34:38.185Z,9.85
2018-09-29T07:37:06.841Z,9.97
2018-09-29T07:39:35.356Z,10.09
2018-09-29T07:42:04.060Z,10.20
2018-09-29T07:44:32.824Z,10.26
2018-09-29T07:47:01.848Z,10.38
2018-09-29T07:49:30.523Z,10.48
2018-09-29T07:51:59.128Z,10.54
2018-09-29T07:54:27.975Z,10.60
2018-09-29T07:56:56.771Z,10.66
2018-09-29T07:59:29.498Z,10.73
2018-09-29T08:01:58.670Z,10.84
2018-09-29T08:04:27.406Z,10.91
2018-09-29T08:06:56.090Z,10.95
2018-09-29T08:09:24.772Z,11.01
2018-09-29T08:11:53.463Z,11.03
2018-09-29T08:14:22.152Z,11.22
2018-09-29T08:16:50.790Z,11.28
2018-09-29T08:19:19.505Z,11.33
2018-09-29T08:21:48.405Z,11.35
2018-09-29T08:24:17.087Z,11.41
2018-09-29T08:26:45.756Z,11.49
2018-09-29T08:29:14.451Z,11.49
2018-09-29T08:31:43.184Z,11.59
2018-09-29T08:34:11.986Z,11.67
2018-09-29T08:36:40.689Z,11.73
2018-09-29T08:39:10.323Z,11.78
2018-09-29T08:41:39.165Z,11.82
2018-09-29T08:44:07.715Z,11.89
2018-09-29T08:46:36.464Z,11.93
2018-09-29T08:49:06.188Z,12.00
2018-09-29T08:51:34.771Z,12.04
2018-09-29T08:54:04.192Z,12.11
2018-09-29T08:56:32.900Z,12.16
2018-09-29T08:59:01.903Z,12.19
2018-09-29T09:01:30.616Z,12.28
2018-09-29T09:03:59.544Z,12.36
2018-09-29T09:06:28.131Z,12.45
2018-09-29T09:08:57.311Z,12.51
2018-09-29T09:11:26.161Z,12.56
2018-09-29T09:13:54.702Z,12.59
2018-09-29T09:16:23.377Z,12.65
2018-09-29T09:18:52.119Z,12.70
2018-09-29T09:21:20.668Z,12.76
2018-09-29T09:23:49.424Z,12.63
2018-09-29T09:26:18.051Z,12.71
2018-09-29T09:28:46.823Z,12.83
2018-09-29T09:31:15.503Z,12.87
2018-09-29T09:33:44.135Z,12.96
2018-09-29T09:36:12.826Z,12.94
2018-09-29T09:38:41.426Z,12.96
2018-09-29T09:41:10.166Z,13.05
2018-09-29T09:43:38.932Z,13.05
2018-09-29T09:46:07.669Z,13.15
2018-09-29T09:48:36.348Z,13.16
2018-09-29T09:51:05.024Z,13.28
2018-09-29T09:53:33.722Z,13.39
2018-09-29T09:56:03.358Z,13.51
2018-09-29T09:58:31.917Z,13.63
2018-09-29T10:01:05.791Z,13.69
2018-09-29T10:03:34.760Z,13.76
2018-09-29T10:06:03.608Z,13.84
2018-09-29T10:08:32.391Z,13.90
2018-09-29T10:11:01.647Z,13.96
2018-09-29T10:13:30.353Z,14.08
2018-09-29T10:15:59.241Z,14.14
2018-09-29T10:18:27.835Z,14.01
2018-09-29T10:21:02.818Z,13.91
2018-09-29T10:23:31.464Z,13.92
2018-09-29T10:26:00.269Z,13.93
2018-09-29T10:28:28.817Z,13.86
2018-09-29T10:30:57.591Z,13.98
2018-09-29T10:33:26.426Z,13.95
2018-09-29T10:35:55.016Z,13.96
2018-09-29T10:38:23.725Z,14.09
2018-09-29T10:40:52.407Z,14.12
2018-09-29T10:43:21.081Z,13.98
2018-09-29T10:45:49.871Z,13.87
2018-09-29T10:48:18.476Z,14.04
2018-09-29T10:50:47.125Z,14.14
2018-09-29T10:53:15.940Z,14.28
2018-09-29T10:55:44.624Z,14.41
2018-09-29T10:58:13.213Z,14.29
2018-09-29T11:00:41.780Z,14.42
2018-09-29T11:03:10.302Z,14.69
2018-09-29T11:05:38.836Z,14.89
2018-09-29T11:08:07.503Z,14.85
2018-09-29T11:10:36.150Z,14.68
2018-09-29T11:13:04.840Z,14.46
2018-09-29T11:15:33.486Z,14.35
2018-09-29T11:18:02.456Z,14.36
2018-09-29T11:20:31.167Z,14.57
2018-09-29T11:22:59.909Z,14.45
2018-09-29T11:25:28.543Z,14.55
2018-09-29T11:27:57.267Z,14.84
2018-09-29T11:30:25.925Z,14.91
2018-09-29T11:32:54.611Z,14.70
2018-09-29T11:35:23.603Z,14.78
2018-09-29T11:37:52.309Z,15.07
2018-09-29T11:40:21.256Z,15.37
2018-09-29T11:42:49.950Z,15.66
2018-09-29T11:45:18.566Z,15.83
2018-09-29T11:47:47.400Z,15.99
2018-09-29T11:50:16.038Z,16.15
2018-09-29T11:52:44.661Z,16.22
2018-09-29T11:55:13.490Z,16.39
2018-09-29T11:57:42.321Z,16.52
2018-09-29T12:00:11.034Z,16.46
2018-09-29T12:02:39.796Z,16.52
2018-09-29T12:05:08.557Z,16.68
2018-09-29T12:07:44.494Z,16.85
2018-09-29T12:10:13.168Z,17.01
2018-09-29T12:12:41.938Z,17.14
2018-09-29T12:15:10.546Z,17.05
2018-09-29T12:17:39.218Z,17.02
2018-09-29T12:20:07.875Z,16.81
2018-09-29T12:22:36.440Z,16.54
2018-09-29T12:25:06.495Z,16.24
2018-09-29T12:27:35.145Z,16.04
2018-09-29T12:30:04.021Z,15.92
2018-09-29T12:32:32.552Z,15.79
2018-09-29T12:35:02.263Z,15.65
2018-09-29T12:37:30.957Z,15.39
2018-09-29T12:39:59.763Z,15.25
2018-09-29T12:42:28.422Z,15.14
2018-09-29T12:44:57.037Z,15.45
2018-09-29T12:47:25.730Z,15.88
2018-09-29T12:49:54.440Z,16.23
2018-09-29T12:52:23.091Z,16.55
2018-09-29T12:54:51.879Z,16.65
2018-09-29T12:57:20.656Z,16.65
2018-09-29T12:59:49.388Z,16.90
2018-09-29T13:02:18.035Z,16.98
2018-09-29T13:04:46.771Z,16.87
2018-09-29T13:07:15.322Z,17.06
2018-09-29T13:09:44.040Z,17.33
2018-09-29T13:12:12.751Z,17.16
2018-09-29T13:14:41.356Z,17.15
2018-09-29T13:17:10.065Z,16.98
2018-09-29T13:19:38.792Z,17.01
2018-09-29T13:22:07.637Z,17.31
2018-09-29T13:24:36.261Z,17.40
2018-09-29T13:27:05.180Z,17.34
2018-09-29T13:29:33.875Z,17.58
2018-09-29T13:32:03.269Z,17.70
2018-09-29T13:34:31.882Z,17.84
2018-09-29T13:37:00.686Z,17.69
2018-09-29T13:39:29.423Z,17.53
2018-09-29T13:41:58.018Z,17.41
2018-09-29T13:44:26.612Z,17.35
2018-09-29T13:46:55.250Z,17.26
2018-09-29T13:49:24.037Z,17.24
2018-09-29T13:51:52.717Z,17.05
2018-09-29T13:54:21.275Z,16.68
2018-09-29T13:56:50.034Z,16.71
2018-09-29T13:59:18.771Z,16.76
2018-09-29T14:01:47.495Z,16.76
2018-09-29T14:04:16.130Z,16.73
2018-09-29T14:06:44.760Z,16.69
2018-09-29T14:09:13.951Z,16.59
2018-09-29T14:11:42.626Z,16.58
2018-09-29T14:14:11.252Z,16.50
2018-09-29T14:16:39.840Z,16.46
2018-09-29T14:19:08.516Z,16.48
2018-09-29T14:21:37.150Z,16.50
2018-09-29T14:24:05.815Z,16.59
2018-09-29T14:26:34.830Z,16.61
2018-09-29T14:29:04.430Z,16.65
2018-09-29T14:31:33.070Z,16.53
2018-09-29T14:34:01.825Z,16.58
2018-09-29T14:36:30.646Z,16.42
2018-09-29T14:38:59.363Z,16.35
2018-09-29T14:41:28.029Z,16.16
2018-09-29T14:43:56.624Z,16.09
2018-09-29T14:46:25.290Z,16.17
2018-09-29T14:48:56.731Z,16.33
2018-09-29T14:51:25.263Z,16.47
2018-09-29T14:53:54.232Z,16.51
2018-09-29T14:56:22.853Z,16.61
2018-09-29T14:58:51.508Z,16.77
2018-09-29T15:01:20.279Z,16.89
2018-09-29T15:03:49.020Z,16.75
2018-09-29T15:06:17.706Z,16.80
2018-09-29T15:08:46.319Z,16.74
2018-09-29T15:11:14.891Z,16.54
2018-09-29T15:13:43.643Z,16.33
2018-09-29T15:16:12.310Z,16.26
2018-09-29T15:18:40.901Z,16.13
2018-09-29T15:21:09.597Z,15.96
2018-09-29T15:23:38.735Z,15.85
2018-09-29T15:26:07.719Z,15.82
2018-09-29T15:28:36.301Z,15.73
2018-09-29T15:31:04.979Z,15.73
2018-09-29T15:33:33.720Z,15.69
2018-09-29T15:36:02.852Z,15.66
2018-09-29T15:38:31.424Z,15.63
2018-09-29T15:41:00.167Z,15.56
2018-09-29T15:43:29.346Z,15.54
2018-09-29T15:45:58.027Z,15.50
2018-09-29T15:48:26.693Z,15.46
2018-09-29T15:50:55.327Z,15.41
2018-09-29T15:53:24.013Z,15.36
2018-09-29T15:55:52.708Z,15.28
2018-09-29T15:58:21.377Z,15.25
2018-09-29T16:00:50.381Z,15.18
2018-09-29T16:03:19.124Z,15.10
2018-09-29T16:05:47.795Z,15.00
2018-09-29T16:08:16.444Z,14.98
2018-09-29T16:10:45.123Z,14.96
2018-09-29T16:13:13.820Z,14.94
2018-09-29T16:15:42.647Z,14.93
2018-09-29T16:18:11.181Z,14.87
2018-09-29T16:20:39.851Z,14.74
2018-09-29T16:23:08.535Z,14.72
2018-09-29T16:25:37.173Z,14.69
2018-09-29T16:28:05.903Z,14.68
2018-09-29T16:30:34.514Z,14.62
2018-09-29T16:33:03.624Z,14.58
2018-09-29T16:35:32.679Z,14.57
2018-09-29T16:38:02.514Z,14.52
2018-09-29T16:40:31.291Z,14.54
2018-09-29T16:42:59.917Z,14.50
2018-09-29T16:45:28.618Z,14.45
2018-09-29T16:47:57.178Z,14.41
2018-09-29T16:50:25.807Z,14.36
2018-09-29T16:52:54.418Z,14.29
2018-09-29T16:55:23.162Z,14.25
2018-09-29T16:57:51.898Z,14.19
2018-09-29T17:00:20.533Z,14.12
2018-09-29T17:02:49.167Z,14.06
2018-09-29T17:05:17.728Z,13.98
2018-09-29T17:07:46.550Z,13.90
2018-09-29T17:10:15.253Z,13.87
2018-09-29T17:12:44.043Z,13.77
2018-09-29T17:15:12.698Z,13.68
2018-09-29T17:17:41.399Z,13.60
2018-09-29T17:20:10.507Z,13.54
2018-09-29T17:22:39.154Z,13.45
2018-09-29T17:25:07.942Z,13.41
2018-09-29T17:27:36.562Z,13.33
2018-09-29T17:30:05.424Z,13.26
2018-09-29T17:32:34.043Z,13.20
2018-09-29T17:35:02.703Z,13.15
2018-09-29T17:37:31.936Z,13.10
2018-09-29T17:40:00.465Z,13.03
2018-09-29T17:42:28.995Z,12.95
2018-09-29T17:44:58.187Z,12.93
2018-09-29T17:47:26.832Z,12.88
2018-09-29T17:49:55.499Z,12.83
2018-09-29T17:52:24.052Z,12.79
2018-09-29T17:54:52.627Z,12.77
2018-09-29T17:57:21.313Z,12.72
2018-09-29T17:59:50.013Z,12.67
2018-09-29T18:02:18.688Z,12.62
2018-09-29T18:04:47.454Z,12.57
2018-09-29T18:07:16.065Z,12.54
2018-09-29T18:09:44.712Z,12.50
2018-09-29T18:12:13.378Z,12.47
2018-09-29T18:14:42.013Z,12.40
2018-09-29T18:17:10.832Z,12.34
2018-09-29T18:19:39.473Z,12.30
2018-09-29T18:22:08.317Z,12.27
2018-09-29T18:24:36.976Z,12.21
2018-09-29T18:27:05.613Z,12.19
2018-09-29T18:29:34.189Z,12.16
2018-09-29T18:32:02.921Z,12.14
2018-09-29T18:34:31.579Z,12.09
2018-09-29T18:37:00.187Z,12.06
2018-09-29T18:39:29.372Z,12.04
2018-09-29T18:41:58.027Z,12.02
2018-09-29T18:44:26.591Z,12.01
2018-09-29T18:46:55.229Z,11.98
2018-09-29T18:49:24.231Z,11.96
2018-09-29T18:51:52.974Z,11.91
2018-09-29T18:54:21.887Z,11.89
2018-09-29T18:56:51.242Z,11.84
2018-09-29T18:59:19.907Z,11.81
2018-09-29T19:01:48.561Z,11.77
2018-09-29T19:04:17.976Z,11.74
2018-09-29T19:06:46.834Z,11.72
2018-09-29T19:09:15.639Z,11.68
2018-09-29T19:11:45.264Z,11.64
2018-09-29T19:14:15.607Z,11.62
2018-09-29T19:16:44.429Z,11.60
2018-09-29T19:19:13.185Z,11.56
2018-09-29T19:21:41.797Z,11.54
2018-09-29T19:24:10.539Z,11.52
2018-09-29T19:26:39.213Z,11.52
2018-09-29T19:29:07.930Z,11.49
2018-09-29T19:31:36.557Z,11.46
2018-09-29T19:34:05.418Z,11.43
2018-09-29T19:36:34.061Z,11.38
2018-09-29T19:39:02.897Z,11.36
2018-09-29T19:41:31.580Z,11.32
2018-09-29T19:44:00.365Z,11.31
2018-09-29T19:46:29.175Z,11.28
2018-09-29T19:48:57.910Z,11.29
2018-09-29T19:51:26.660Z,11.26
2018-09-29T19:53:55.251Z,11.23
2018-09-29T19:56:24.154Z,11.15
2018-09-29T19:58:52.908Z,11.15
2018-09-29T20:01:21.500Z,11.13
2018-09-29T20:03:50.278Z,11.10
2018-09-29T20:06:19.157Z,11.08
2018-09-29T20:08:47.844Z,11.08
2018-09-29T20:11:16.705Z,11.05
2018-09-29T20:13:45.988Z,10.98
2018-09-29T20:16:14.591Z,10.99
2018-09-29T20:18:43.339Z,10.95
2018-09-29T20:21:12.462Z,10.91
2018-09-29T20:23:41.254Z,10.89
2018-09-29T20:26:10.126Z,10.84
2018-09-29T20:28:38.860Z,10.82
2018-09-29T20:31:07.485Z,10.76
2018-09-29T20:33:36.107Z,10.74
2018-09-29T20:36:05.004Z,10.78
2018-09-29T20:38:33.667Z,10.74
2018-09-29T20:41:03.178Z,10.72
2018-09-29T20:43:31.962Z,10.67
2018-09-29T20:46:00.678Z,10.64
2018-09-29T20:48:29.354Z,10.60
2018-09-29T20:50:58.421Z,10.59
2018-09-29T20:53:27.146Z,10.57
2018-09-29T20:55:55.745Z,10.59
2018-09-29T20:58:24.439Z,10.55
2018-09-29T21:00:53.269Z,10.53
2018-09-29T21:03:21.957Z,10.56
2018-09-29T21:05:50.674Z,10.51
2018-09-29T21:08:19.625Z,10.49
2018-09-29T21:10:48.318Z,10.46
2018-09-29T21:13:16.920Z,10.44
2018-09-29T21:15:45.536Z,10.44
2018-09-29T21:18:14.585Z,10.40
2018-09-29T21:20:43.367Z,10.44
2018-09-29T21:23:12.044Z,10.41
2018-09-29T21:25:40.665Z,10.38
2018-09-29T21:28:09.372Z,10.38
2018-09-29T21:30:38.286Z,10.34
2018-09-29T21:33:07.953Z,10.30
2018-09-29T21:35:36.507Z,10.27
2018-09-29T21:38:05.287Z,10.22
2018-09-29T21:40:33.993Z,10.23
2018-09-29T21:43:02.889Z,10.21
2018-09-29T21:45:31.515Z,10.17
2018-09-29T21:48:00.437Z,10.17
2018-09-29T21:50:29.070Z,10.16
2018-09-29T21:52:57.786Z,10.15
2018-09-29T21:55:26.608Z,10.05
2018-09-29T21:57:55.413Z,10.01
2018-09-29T22:00:29.416Z,10.02
2018-09-29T22:02:58.054Z,10.00
2018-09-29T22:05:26.644Z,10.05
2018-09-29T22:07:55.289Z,9.99
2018-09-29T22:10:24.156Z,9.95
2018-09-29T22:12:52.732Z,9.92
2018-09-29T22:15:21.508Z,9.89
2018-09-29T22:17:50.179Z,9.88
2018-09-29T22:20:18.994Z,9.87
2018-09-29T22:22:47.731Z,9.91
2018-09-29T22:25:16.479Z,9.91
2018-09-29T22:27:45.191Z,9.89
2018-09-29T22:30:14.047Z,9.85
2018-09-29T22:32:42.956Z,9.85
2018-09-29T22:35:12.563Z,9.86
2018-09-29T22:37:41.240Z,9.82
2018-09-29T22:40:09.850Z,9.75
2018-09-29T22:42:38.478Z,9.76
2018-09-29T22:45:07.106Z,9.68
2018-09-29T22:47:35.911Z,9.67
2018-09-29T22:50:04.684Z,9.63
2018-09-29T22:52:33.260Z,9.61
2018-09-29T22:55:01.899Z,9.63
2018-09-29T22:57:30.656Z,9.65
2018-09-29T22:59:59.181Z,9.67
2018-09-29T23:02:27.792Z,9.66
2018-09-29T23:04:56.424Z,9.64
2018-09-29T23:07:25.208Z,9.65
2018-09-29T23:09:53.698Z,9.62
2018-09-29T23:12:22.450Z,9.59
2018-09-29T23:14:50.985Z,9.62
2018-09-29T23:17:19.809Z,9.62
2018-09-29T23:19:48.522Z,9.58
2018-09-29T23:22:17.330Z,9.57
2018-09-29T23:24:45.983Z,9.58
2018-09-29T23:27:14.606Z,9.54
2018-09-29T23:29:43.542Z,9.49
2018-09-29T23:32:12.458Z,9.46
2018-09-29T23:34:41.049Z,9.44
2018-09-29T23:37:09.759Z,9.40
2018-09-29T23:39:38.323Z,9.37
2018-09-29T23:42:07.010Z,9.26
2018-09-29T23:44:35.847Z,9.23
2018-09-29T23:47:04.757Z,9.24
2018-09-29T23:49:33.380Z,9.26
2018-09-29T23:52:03.052Z,9.24
2018-09-29T23:54:31.723Z,9.20
2018-09-29T23:57:00.391Z,9.22
2018-09-29T23:59:28.989Z,9.19
